Time;durP1;ratioP1;P1;durP2;ratioP2;P2;SDS_P1;SDS_P2;PMS_P1;PMS_P2;Temp;Humidity;BMP_temperature;BMP_pressure;BME280_temperature;BME280_humidity;BME280_pressure;Samples;Min_cycle;Max_cycle;Signal;HPM_P1;HPM_P2
2022/10/08 06:07:14;;;;;;;;;10.75;9.00;;;;;11.34;69.07;102062.34;2494357;23;46239;-83
2022/10/08 06:08:24;;;;;;;;;7.25;6.00;;;;;11.35;69.11;102053.56;2391844;28;45363;-82
2022/10/08 06:09:35;;;;;;;;;10.00;7.00;;;;;11.36;68.90;102055.28;2385121;28;45835;-82
2022/10/08 06:10:53;;;;;;;;;8.50;6.50;;;;;11.37;69.18;102054.41;2385287;28;46412;-83
2022/10/08 06:12:03;;;;;;;;;9.00;7.00;;;;;11.36;69.10;102060.56;2393177;28;45335;-82
2022/10/08 06:13:13;;;;;;;;;10.50;10.50;;;;;11.39;69.05;102064.91;2393509;28;45457;-82
2022/10/08 06:14:24;;;;;;;;;11.25;9.00;;;;;11.39;69.07;102064.91;2393697;28;45534;-83
2022/10/08 06:15:34;;;;;;;;;9.25;8.00;;;;;11.39;69.06;102065.78;2384009;28;47017;-83
2022/10/08 06:16:45;;;;;;;;;8.75;7.00;;;;;11.38;69.20;102058.78;2388006;28;44788;-82
2022/10/08 06:17:57;;;;;;;;;8.50;7.75;;;;;11.39;69.38;102063.16;2393374;28;47714;-82
2022/10/08 06:19:08;;;;;;;;;11.25;8.25;;;;;11.37;69.42;102067.56;2393820;28;45240;-82
2022/10/08 06:20:19;;;;;;;;;12.50;8.25;;;;;11.37;69.45;102064.94;2383840;28;46912;-82
2022/10/08 06:21:30;;;;;;;;;8.00;6.75;;;;;11.39;69.50;102067.53;2389106;28;45426;-83
2022/10/08 06:22:40;;;;;;;;;6.75;6.75;;;;;11.40;69.39;102066.66;2393296;28;45343;-81
2022/10/08 06:23:54;;;;;;;;;9.50;8.50;;;;;11.41;69.10;102071.88;2384004;28;45440;-81
2022/10/08 06:25:05;;;;;;;;;9.75;9.00;;;;;11.42;69.30;102071.00;2386273;28;46583;-81
2022/10/08 06:26:16;;;;;;;;;12.75;10.25;;;;;11.43;69.41;102075.38;2393471;28;45409;-80
2022/10/08 06:27:27;;;;;;;;;20.00;15.25;;;;;11.41;69.49;102069.25;2393321;28;46248;-81
2022/10/08 06:28:38;;;;;;;;;11.00;8.75;;;;;11.42;69.46;102078.03;2393095;28;45205;-81
2022/10/08 06:29:48;;;;;;;;;11.50;9.50;;;;;11.43;69.42;102079.78;2393053;28;45567;-81
2022/10/08 06:30:59;;;;;;;;;13.50;10.50;;;;;11.44;69.56;102074.47;2392779;28;45259;-81
2022/10/08 06:32:09;;;;;;;;;21.25;17.75;;;;;11.44;69.37;102073.59;2393418;28;46455;-82
2022/10/08 06:33:20;;;;;;;;;20.25;15.25;;;;;11.43;69.37;102078.00;2393300;28;45265;-82
2022/10/08 06:34:30;;;;;;;;;16.25;15.25;;;;;11.44;69.54;102078.88;2382477;28;47231;-82
2022/10/08 06:35:40;;;;;;;;;23.00;20.50;;;;;11.43;69.51;102080.63;2386412;28;45372;-82
2022/10/08 06:36:51;;;;;;;;;11.25;9.00;;;;;11.45;69.68;102089.41;2382647;28;48281;-82
2022/10/08 06:38:02;;;;;;;;;22.50;15.75;;;;;11.47;69.82;102095.50;2386076;28;44795;-82
2022/10/08 06:39:15;;;;;;;;;20.25;15.75;;;;;11.47;69.55;102097.25;2393406;28;45380;-82
2022/10/08 06:40:25;;;;;;;;;13.50;13.25;;;;;11.49;69.59;102100.75;2393226;28;45465;-82
2022/10/08 06:41:36;;;;;;;;;15.25;10.75;;;;;11.52;69.78;102107.72;2391073;28;46283;-82
2022/10/08 06:42:46;;;;;;;;;15.00;11.50;;;;;11.53;69.82;102109.47;2395094;28;44940;-82
2022/10/08 06:43:56;;;;;;;;;14.50;11.00;;;;;11.54;69.79;102106.81;2394246;28;46364;-83
2022/10/08 06:45:07;;;;;;;;;7.75;7.50;;;;;11.54;69.97;102104.19;2393723;28;45219;-82
2022/10/08 06:46:18;;;;;;;;;13.50;10.00;;;;;11.57;70.07;102109.41;2392498;28;46497;-82
2022/10/08 06:47:29;;;;;;;;;12.50;10.00;;;;;11.58;69.96;102105.00;2393443;28;45381;-82
2022/10/08 06:48:39;;;;;;;;;10.00;10.00;;;;;11.60;70.18;102105.84;2393151;28;45409;-82
2022/10/08 06:49:50;;;;;;;;;6.50;5.50;;;;;11.61;71.32;102101.44;2393092;28;45203;-82
2022/10/08 06:51:06;;;;;;;;;8.25;7.75;;;;;11.65;71.04;102113.69;2382505;28;47174;-82
2022/10/08 06:52:16;;;;;;;;;10.50;7.75;;;;;11.66;71.01;102108.38;2386975;28;45167;-82
2022/10/08 06:53:27;;;;;;;;;11.25;7.50;;;;;11.69;70.68;102112.72;2382655;28;47312;-82
2022/10/08 06:54:37;;;;;;;;;10.25;7.75;;;;;11.73;70.83;102114.41;2386302;28;45279;-81
2022/10/08 06:55:48;;;;;;;;;8.50;5.75;;;;;11.75;70.83;102115.28;2392639;28;45248;-82
2022/10/08 06:56:58;;;;;;;;;9.75;7.25;;;;;11.79;70.74;102121.34;2392864;28;45400;-82
2022/10/08 06:58:08;;;;;;;;;8.50;6.50;;;;;11.81;71.12;102115.16;2392147;28;45199;-83
2022/10/08 06:59:19;;;;;;;;;9.00;6.50;;;;;11.84;70.93;102119.53;2392648;28;45236;-82
2022/10/08 07:00:29;;;;;;;;;10.50;9.00;;;;;11.85;71.05;102118.66;2390514;28;46293;-83
2022/10/08 07:01:40;;;;;;;;;8.50;7.75;;;;;11.90;71.34;102118.56;2389228;28;45419;-83
2022/10/08 07:02:50;;;;;;;;;7.75;6.75;;;;;11.93;71.43;102123.75;2392561;28;45623;-83
2022/10/08 07:04:02;;;;;;;;;7.50;6.50;;;;;11.95;71.05;102121.13;2393513;28;44664;-83
2022/10/08 07:05:12;;;;;;;;;6.25;5.25;;;;;11.97;71.52;102121.97;2387546;28;46475;-83
2022/10/08 07:06:24;;;;;;;;;9.25;7.25;;;;;12.02;71.42;102122.75;2385408;28;45354;-83
2022/10/08 07:07:35;;;;;;;;;10.75;7.50;;;;;12.03;71.54;102125.34;2392985;28;45492;-83
2022/10/08 07:08:45;;;;;;;;;7.00;7.00;;;;;12.07;72.23;102127.94;2391362;28;45218;-83
2022/10/08 07:09:56;;;;;;;;;5.50;5.00;;;;;12.11;71.94;102130.50;2393436;28;45175;-83
2022/10/08 07:11:15;;;;;;;;;6.00;3.00;;;;;12.16;71.97;102133.09;2393034;28;45414;-82
2022/10/08 07:12:25;;;;;;;;;8.50;6.25;;;;;12.18;72.21;102133.94;2382778;28;46976;-83
2022/10/08 07:13:37;;;;;;;;;7.00;5.50;;;;;12.23;71.99;102128.56;2384724;28;45495;-82
2022/10/08 07:14:47;;;;;;;;;6.50;5.50;;;;;12.29;71.83;102131.13;2384895;28;45305;-83
2022/10/08 07:16:10;;;;;;;;;4.75;3.25;;;;;12.33;72.26;102131.91;2380832;28;47022;-83
2022/10/08 07:17:21;;;;;;;;;7.50;4.75;;;;;12.35;71.84;102131.00;2387763;28;45346;-82
2022/10/08 07:18:32;;;;;;;;;8.75;5.00;;;;;12.41;71.57;102129.13;2383355;28;45341;-83
2022/10/08 07:19:43;;;;;;;;;7.50;6.00;;;;;12.45;71.67;102142.25;2377398;28;45432;-83
2022/10/08 07:20:57;;;;;;;;;7.00;5.75;;;;;12.48;72.32;102150.09;2389080;28;44840;-82
2022/10/08 07:22:07;;;;;;;;;7.50;4.75;;;;;12.53;72.02;102154.41;2393416;28;45304;-82
2022/10/08 07:23:17;;;;;;;;;6.25;6.25;;;;;12.57;71.98;102156.09;2392300;28;45206;-82
2022/10/08 07:24:28;;;;;;;;;6.25;5.50;;;;;12.60;73.98;102156.03;2393779;28;45522;-83
2022/10/08 07:25:38;;;;;;;;;8.00;6.50;;;;;12.63;72.28;102156.00;2385243;28;45412;-82
2022/10/08 07:26:49;;;;;;;;;8.75;5.00;;;;;12.67;72.27;102156.78;2386498;28;46187;-82
2022/10/08 07:27:59;;;;;;;;;6.50;4.75;;;;;12.72;72.24;102152.28;2393242;28;44627;-82
2022/10/08 07:29:14;;;;;;;;;5.75;5.75;;;;;12.76;71.89;102155.75;2392976;28;45358;-82
2022/10/08 07:30:24;;;;;;;;;7.25;5.00;;;;;12.82;71.96;102159.13;2393195;28;45254;-82
2022/10/08 07:31:36;;;;;;;;;7.75;5.50;;;;;12.86;72.25;102156.44;2391079;28;48375;-82
2022/10/08 07:32:46;;;;;;;;;8.75;8.25;;;;;12.88;72.30;102157.28;2390632;28;44557;-82
2022/10/08 07:33:58;;;;;;;;;6.50;4.75;;;;;12.93;71.72;102158.94;2392858;28;45574;-81
2022/10/08 07:35:09;;;;;;;;;6.00;4.00;;;;;12.98;71.98;102165.88;2392397;28;45469;-82
2022/10/08 07:36:21;;;;;;;;;4.75;4.50;;;;;13.00;71.67;102161.44;2392698;28;46118;-82
2022/10/08 07:37:32;;;;;;;;;8.75;8.25;;;;;13.03;71.89;102169.31;2381763;28;44812;-82
2022/10/08 07:38:42;;;;;;;;;5.25;4.00;;;;;13.06;71.90;102169.25;2385072;28;46260;-82
2022/10/08 07:39:53;;;;;;;;;7.75;5.75;;;;;13.11;72.01;102166.50;2393482;28;45303;-82
2022/10/08 07:41:04;;;;;;;;;4.75;4.00;;;;;13.14;71.93;102166.41;2398838;28;45428;-82
2022/10/08 07:42:14;;;;;;;;;4.25;4.25;;;;;13.19;71.56;102169.84;2400559;28;45286;-82
2022/10/08 07:43:25;;;;;;;;;4.00;4.00;;;;;13.22;71.99;102168.91;2395963;28;46519;-81
2022/10/08 07:44:35;;;;;;;;;7.50;3.25;;;;;13.25;71.94;102167.09;2382860;28;45323;-82
2022/10/08 07:45:45;;;;;;;;;7.50;4.75;;;;;13.31;71.72;102178.41;2383375;28;45492;-82
2022/10/08 07:46:56;;;;;;;;;9.00;4.00;;;;;13.35;71.90;102174.81;2392698;28;45305;-82
2022/10/08 07:48:06;;;;;;;;;7.50;4.00;;;;;13.37;71.67;102173.88;2396702;28;45487;-82
2022/10/08 07:49:17;;;;;;;;;4.00;4.00;;;;;13.42;71.99;102181.69;2393686;28;47027;-82
2022/10/08 07:50:27;;;;;;;;;3.00;3.00;;;;;13.44;71.99;102174.59;2399735;28;46482;-82
2022/10/08 07:51:38;;;;;;;;;5.00;5.00;;;;;13.49;71.68;102185.06;2400132;28;44682;-82
2022/10/08 07:52:49;;;;;;;;;7.00;7.00;;;;;13.53;71.83;102189.34;2389822;28;45998;-82
2022/10/08 07:54:00;;;;;;;;;6.25;3.50;;;;;13.58;71.53;102186.66;2383229;28;45332;-82
2022/10/08 07:55:10;;;;;;;;;5.00;4.25;;;;;13.61;72.02;102183.94;2390412;28;46329;-82
2022/10/08 07:56:22;;;;;;;;;6.25;4.00;;;;;13.64;71.65;102177.72;2381434;28;44736;-82
2022/10/08 07:57:32;;;;;;;;;7.00;5.25;;;;;13.69;71.66;102189.94;2384800;28;46568;-82
2022/10/08 07:58:43;;;;;;;;;8.00;6.00;;;;;13.72;71.13;102183.69;2382992;28;45578;-82
2022/10/08 07:59:54;;;;;;;;;5.50;5.50;;;;;13.78;71.09;102188.00;2378348;28;45508;-82
2022/10/08 08:01:07;;;;;;;;;9.25;4.00;;;;;13.82;71.36;102192.28;2391374;28;45310;-80
2022/10/08 08:02:18;;;;;;;;;5.00;4.75;;;;;13.84;71.26;102195.75;2392298;28;46352;-80
2022/10/08 08:03:29;;;;;;;;;7.00;5.00;;;;;13.90;71.00;102197.41;2397516;28;44756;-80
2022/10/08 08:04:39;;;;;;;;;6.00;4.00;;;;;13.91;71.00;102188.53;2400952;28;45492;-80
2022/10/08 08:05:50;;;;;;;;;4.25;3.25;;;;;13.97;70.79;102203.41;2399659;28;45361;-80
2022/10/08 08:07:00;;;;;;;;;4.00;4.00;;;;;14.01;70.91;102205.06;2398742;28;45427;-80
2022/10/08 08:08:11;;;;;;;;;5.25;5.25;;;;;14.01;70.75;102202.41;2390520;28;45378;-80
2022/10/08 08:09:21;;;;;;;;;8.25;7.00;;;;;14.03;71.17;102201.47;2387637;28;45497;-80
2022/10/08 08:10:31;;;;;;;;;7.50;4.50;;;;;14.06;70.80;102198.75;2398304;28;44742;-81
2022/10/08 08:11:42;;;;;;;;;5.75;3.75;;;;;14.12;70.48;102202.16;2399853;28;46537;-80
2022/10/08 08:12:52;;;;;;;;;6.50;5.00;;;;;14.12;70.14;102203.03;2398718;28;45214;-84
2022/10/08 08:14:03;;;;;;;;;8.00;4.00;;;;;14.17;70.48;102206.41;2393063;28;46160;-82
2022/10/08 08:15:13;;;;;;;;;4.00;3.50;;;;;14.20;70.36;102202.81;2392457;28;44831;-81
2022/10/08 08:16:25;;;;;;;;;4.25;3.00;;;;;14.22;70.39;102208.09;2391722;28;46372;-81
2022/10/08 08:17:36;;;;;;;;;8.50;5.00;;;;;14.24;70.45;102203.63;2393408;28;44770;-82
2022/10/08 08:18:49;;;;;;;;;3.00;3.00;;;;;14.28;70.04;102207.94;2397910;28;45237;-81
2022/10/08 08:19:59;;;;;;;;;5.25;3.50;;;;;14.31;69.95;102213.16;2404093;28;45230;-80
2022/10/08 08:21:15;;;;;;;;;5.25;2.00;;;;;14.37;69.97;102215.63;2395089;28;46131;-80
2022/10/08 08:22:25;;;;;;;;;6.50;5.50;;;;;14.40;70.11;102215.56;2394377;28;45255;-80
2022/10/08 08:23:39;;;;;;;;;6.00;3.00;;;;;14.43;70.03;102216.38;2393448;28;45214;-80
2022/10/08 08:24:49;;;;;;;;;8.00;3.25;;;;;14.46;70.00;102216.31;2403460;28;45281;-82
2022/10/08 08:26:04;;;;;;;;;4.75;3.00;;;;;14.48;69.96;102220.66;2396779;28;46339;-81
2022/10/08 08:27:14;;;;;;;;;4.00;4.00;;;;;14.51;69.64;102214.41;2394580;28;44582;-81
2022/10/08 08:28:25;;;;;;;;;3.25;1.25;;;;;14.53;69.36;102220.53;2394459;28;45281;-83
2022/10/08 08:29:35;;;;;;;;;4.00;2.75;;;;;14.58;69.25;102226.56;2393214;28;46303;-81
2022/10/08 08:30:45;;;;;;;;;4.50;3.00;;;;;14.59;69.15;102224.81;2394740;28;45338;-82
2022/10/08 08:31:56;;;;;;;;;4.00;4.00;;;;;14.60;69.01;102232.69;2384190;28;45291;-82
2022/10/08 08:33:06;;;;;;;;;5.00;4.00;;;;;14.65;69.08;102237.84;2386548;28;46351;-82
2022/10/08 08:34:19;;;;;;;;;3.75;2.00;;;;;14.66;68.97;102230.78;2394714;28;44595;-82
2022/10/08 08:35:29;;;;;;;;;6.75;4.00;;;;;14.68;68.65;102232.50;2394271;28;45401;-82
2022/10/08 08:36:42;;;;;;;;;7.75;2.50;;;;;14.71;68.63;102231.53;2394170;28;45169;-82
2022/10/08 08:37:52;;;;;;;;;6.00;3.00;;;;;14.73;68.75;102237.66;2394445;28;45393;-82
2022/10/08 08:39:05;;;;;;;;;5.75;2.00;;;;;14.77;68.58;102241.06;2384041;28;45521;-82
2022/10/08 08:40:15;;;;;;;;;3.25;2.75;;;;;14.80;68.75;102235.72;2387174;28;45227;-82
2022/10/08 08:41:40;;;;;;;;;5.00;3.00;;;;;14.83;67.82;102241.81;2384374;28;45183;-82
2022/10/08 08:42:55;;;;;;;;;7.25;3.00;;;;;14.85;68.01;102234.72;2389302;28;45664;-82
2022/10/08 08:44:11;;;;;;;;;3.00;2.00;;;;;14.87;67.50;102242.59;2394335;28;45587;-82
2022/10/08 08:45:34;;;;;;;;;0.75;0.00;;;;;14.89;67.32;102245.22;2393516;28;45696;-82
2022/10/08 08:46:55;;;;;;;;;5.50;4.25;;;;;14.93;67.66;102245.09;2384143;28;44685;-82
2022/10/08 08:48:15;;;;;;;;;4.50;3.00;;;;;14.95;67.43;102248.56;2378951;28;47074;-82
2022/10/08 08:49:49;;;;;;;;;3.00;2.25;;;;;15.01;66.97;102251.97;2388488;28;45324;-82
2022/10/08 08:50:59;;;;;;;;;4.00;2.50;;;;;15.02;67.04;102249.25;2394446;28;46401;-83
2022/10/08 08:52:15;;;;;;;;;4.25;3.00;;;;;15.06;66.88;102245.59;2383801;28;45327;-82
2022/10/08 08:53:26;;;;;;;;;3.50;2.00;;;;;15.10;67.03;102249.06;2387373;28;45321;-82
2022/10/08 08:54:37;;;;;;;;;3.00;3.00;;;;;15.15;66.51;102259.50;2394429;28;45302;-82
2022/10/08 08:55:54;;;;;;;;;7.50;3.75;;;;;15.15;66.31;102251.56;2384124;28;47239;-82
2022/10/08 08:57:40;;;;;;;;;4.00;3.00;;;;;15.21;66.01;102267.28;2387986;28;45267;-82
2022/10/08 08:59:07;;;;;;;;;6.50;4.00;;;;;15.22;66.41;102258.44;2388822;28;46270;-82
2022/10/08 09:00:21;;;;;;;;;3.75;3.00;;;;;15.25;65.61;102258.34;2394338;28;45167;-82
2022/10/08 09:01:42;;;;;;;;;3.50;2.25;;;;;15.29;66.50;102262.63;2394121;28;47343;-82
2022/10/08 09:03:28;;;;;;;;;4.50;3.00;;;;;15.35;66.16;102260.72;2394318;28;45403;-82
2022/10/08 09:04:50;;;;;;;;;4.25;3.25;;;;;15.37;65.93;102259.78;2356097;29;45477;-82
2022/10/08 09:06:08;;;;;;;;;5.00;3.00;;;;;15.40;66.18;102264.13;2394351;28;45433;-83
2022/10/08 09:07:24;;;;;;;;;3.25;3.00;;;;;15.42;65.76;102257.00;2383663;28;47279;-82
2022/10/08 09:08:39;;;;;;;;;5.00;3.00;;;;;15.46;65.96;102266.56;2387667;28;45327;-83
2022/10/08 09:09:54;;;;;;;;;4.75;4.25;;;;;15.46;65.24;102266.56;2393834;28;45709;-82
2022/10/08 09:11:05;;;;;;;;;3.00;2.25;;;;;15.51;65.54;102274.38;2384037;28;44556;-82
2022/10/08 09:12:28;;;;;;;;;4.25;3.00;;;;;15.55;65.27;102275.19;2386966;28;45273;-82
2022/10/08 09:14:13;;;;;;;;;6.00;3.00;;;;;15.55;64.41;102264.56;2394538;28;44570;-82
2022/10/08 09:15:31;;;;;;;;;3.75;2.25;;;;;15.60;64.43;102275.91;2379193;28;47626;-82
2022/10/08 09:16:42;;;;;;;;;4.00;2.00;;;;;15.61;64.07;102269.69;2388333;28;44748;-83
2022/10/08 09:17:52;;;;;;;;;4.25;3.25;;;;;15.64;63.71;102274.91;2383844;28;47131;-83
2022/10/08 09:19:03;;;;;;;;;3.00;3.00;;;;;15.68;63.98;102273.03;2387082;28;45243;-83
2022/10/08 09:20:16;;;;;;;;;4.50;3.25;;;;;15.71;64.57;102276.44;2384055;28;46430;-83
2022/10/08 09:21:29;;;;;;;;;5.50;3.25;;;;;15.72;64.27;102272.91;2387201;28;45330;-83
2022/10/08 09:22:40;;;;;;;;;5.25;3.50;;;;;15.77;64.37;102274.53;2383353;28;48269;-83
2022/10/08 09:23:50;;;;;;;;;2.50;2.00;;;;;15.80;64.20;102274.44;2386985;28;45646;-83
2022/10/08 09:25:05;;;;;;;;;4.00;2.50;;;;;15.84;63.45;102284.91;2394158;28;45475;-83
2022/10/08 09:26:15;;;;;;;;;6.75;3.00;;;;;15.85;63.23;102276.00;2394173;28;45212;-83
2022/10/08 09:28:04;;;;;;;;;5.00;2.50;;;;;15.85;63.01;102283.97;2393333;28;45381;-83
2022/10/08 09:29:32;;;;;;;;;4.00;2.00;;;;;15.85;62.50;102281.31;2356122;29;45423;-83
2022/10/08 09:30:43;;;;;;;;;4.75;2.00;;;;;15.88;61.84;102285.66;2356023;29;45549;-83
2022/10/08 09:31:54;;;;;;;;;5.00;2.00;;;;;15.91;62.26;102277.63;2356257;29;45248;-83
2022/10/08 09:33:17;;;;;;;;;3.00;2.50;;;;;15.91;61.91;102285.56;2356211;29;45293;-84
2022/10/08 09:34:28;;;;;;;;;3.00;2.50;;;;;15.93;62.39;102281.09;2363482;28;44800;-83
2022/10/08 09:35:44;;;;;;;;;3.25;2.00;;;;;15.96;62.92;102296.03;2393944;28;45451;-83
2022/10/08 09:37:02;;;;;;;;;1.75;0.00;;;;;16.02;61.96;102287.03;2393983;28;45280;-83
2022/10/08 09:38:32;;;;;;;;;4.50;2.00;;;;;15.98;60.16;102287.13;2394079;28;45474;-83
2022/10/08 09:40:11;;;;;;;;;6.50;1.50;;;;;16.05;61.99;102292.28;2393500;28;45219;-83
2022/10/08 09:41:23;;;;;;;;;4.25;2.25;;;;;16.04;60.70;102287.84;2393728;28;46548;-83
2022/10/08 09:42:33;;;;;;;;;2.00;2.00;;;;;16.02;59.41;102287.03;2393784;28;44663;-83
2022/10/08 09:44:03;;;;;;;;;3.00;2.00;;;;;16.08;60.43;102293.03;2393898;28;45426;-83
2022/10/08 09:45:30;;;;;;;;;3.75;3.75;;;;;16.10;60.69;102297.44;2393973;28;45266;-83
2022/10/08 09:46:41;;;;;;;;;3.25;3.00;;;;;16.13;60.91;102286.69;2394659;28;45459;-84
2022/10/08 09:48:11;;;;;;;;;3.50;2.75;;;;;16.18;61.35;102296.25;2383893;28;45231;-83
2022/10/08 09:49:28;;;;;;;;;5.25;2.00;;;;;16.20;60.88;102293.56;2397752;28;45456;-83
2022/10/08 09:50:47;;;;;;;;;6.75;3.00;;;;;16.22;59.60;102296.16;2396706;28;45227;-83
2022/10/08 09:52:25;;;;;;;;;2.50;1.25;;;;;16.25;58.88;102296.91;2393618;28;45419;-83
2022/10/08 09:54:02;;;;;;;;;4.25;1.25;;;;;16.26;57.30;102297.78;2394065;28;45170;-83
2022/10/08 09:55:28;;;;;;;;;3.50;3.00;;;;;16.24;57.35;102294.34;2390352;28;45514;-83
2022/10/08 09:56:38;;;;;;;;;2.00;2.00;;;;;16.26;59.02;102296.03;2394058;28;45236;-83
2022/10/08 09:57:52;;;;;;;;;2.00;2.00;;;;;16.28;59.32;102290.66;2393696;28;45324;-83
2022/10/08 09:59:05;;;;;;;;;2.50;2.00;;;;;16.33;58.14;102296.69;2393862;28;45220;-83
2022/10/08 10:00:42;;;;;;;;;3.00;2.00;;;;;16.37;58.48;102290.34;2393827;28;45368;-83
2022/10/08 10:01:52;;;;;;;;;3.00;2.75;;;;;16.40;57.92;102300.00;2379978;28;45601;-84
2022/10/08 10:03:06;;;;;;;;;2.75;1.25;;;;;16.43;56.70;102302.56;2377109;28;48144;-83
2022/10/08 10:04:24;;;;;;;;;4.75;1.50;;;;;16.48;58.54;102291.78;2386667;28;45342;-83
2022/10/08 10:05:36;;;;;;;;;2.00;2.00;;;;;16.52;56.82;102304.03;2393513;28;45438;-83
2022/10/08 10:06:49;;;;;;;;;3.25;2.75;;;;;16.53;57.89;102295.16;2393406;28;45195;-83
2022/10/08 10:08:00;;;;;;;;;3.25;2.50;;;;;16.58;57.68;102293.22;2393617;28;45324;-83
2022/10/08 10:09:23;;;;;;;;;2.75;2.75;;;;;16.63;58.02;102290.41;2393817;28;45376;-83
2022/10/08 10:10:39;;;;;;;;;4.50;3.50;;;;;16.65;57.79;102292.09;2393810;28;46729;-83
2022/10/08 10:12:12;;;;;;;;;2.00;1.50;;;;;16.72;57.41;102295.41;2393966;28;45493;-83
2022/10/08 10:13:34;;;;;;;;;2.25;2.00;;;;;16.78;56.70;102294.31;2393703;28;46595;-83
2022/10/08 10:15:05;;;;;;;;;5.00;3.25;;;;;16.85;57.88;102295.84;2394000;28;45258;-84
2022/10/08 10:16:24;;;;;;;;;3.25;2.00;;;;;16.93;56.52;102295.59;2374403;28;46667;-83
2022/10/08 10:17:42;;;;;;;;;2.75;2.25;;;;;17.02;56.37;102296.16;2386550;28;44780;-84
2022/10/08 10:19:29;;;;;;;;;2.50;2.50;;;;;17.12;57.29;102296.69;2393618;28;45347;-83
2022/10/08 10:20:45;;;;;;;;;4.00;1.25;;;;;17.17;56.64;102292.13;2364198;29;44690;-83
2022/10/08 10:22:01;;;;;;;;;4.00;2.00;;;;;17.22;53.77;102298.13;2377251;28;47410;-83
2022/10/08 10:23:33;;;;;;;;;4.25;2.00;;;;;17.23;54.46;102306.97;2387625;28;45348;-83
2022/10/08 10:25:29;;;;;;;;;3.25;1.50;;;;;17.24;53.85;102303.38;2393673;28;45330;-83
2022/10/08 10:26:41;;;;;;;;;4.25;1.00;;;;;17.19;54.37;102303.56;2372952;28;44712;-84
2022/10/08 10:28:17;;;;;;;;;1.00;1.00;;;;;17.18;54.85;102304.50;2393676;28;45357;-83
2022/10/08 10:29:37;;;;;;;;;2.00;1.75;;;;;17.14;53.61;102300.16;2393854;28;44590;-84
2022/10/08 10:31:33;;;;;;;;;2.50;2.50;;;;;17.11;54.65;102298.50;2383463;28;47282;-83
2022/10/08 10:33:15;;;;;;;;;4.00;2.00;;;;;17.10;53.40;102297.63;2363733;28;45234;-83
2022/10/08 10:34:33;;;;;;;;;3.25;0.75;;;;;17.12;55.28;102299.34;2392345;28;45758;-84
2022/10/08 10:35:49;;;;;;;;;1.00;1.00;;;;;17.14;54.53;102290.41;2393461;28;45440;-84
2022/10/08 10:37:11;;;;;;;;;4.50;1.50;;;;;17.20;53.52;102302.66;2393306;28;46401;-84
2022/10/08 10:38:26;;;;;;;;;1.50;1.00;;;;;17.26;54.51;102305.06;2393803;28;45321;-84
2022/10/08 10:39:36;;;;;;;;;1.50;0.00;;;;;17.35;53.56;102313.63;2383454;28;48004;-83
2022/10/08 10:41:16;;;;;;;;;3.50;0.50;;;;;17.39;51.31;102307.28;2386314;28;45247;-84
2022/10/08 10:42:38;;;;;;;;;2.00;1.00;;;;;17.45;53.35;102301.75;2392794;28;45498;-84
2022/10/08 10:43:52;;;;;;;;;2.00;1.00;;;;;17.49;52.75;102302.47;2393804;28;45206;-83
2022/10/08 10:45:15;;;;;;;;;1.25;1.00;;;;;17.52;52.55;102291.75;2393361;28;46197;-84
2022/10/08 10:46:49;;;;;;;;;1.25;1.00;;;;;17.56;51.84;102300.47;2383624;28;44638;-84
2022/10/08 10:48:00;;;;;;;;;2.00;1.00;;;;;17.60;52.05;102292.34;2379756;28;47351;-84
2022/10/08 10:49:17;;;;;;;;;2.50;1.00;;;;;17.65;52.46;102301.00;2386369;28;45341;-84
2022/10/08 10:50:53;;;;;;;;;3.00;1.25;;;;;17.73;52.32;102300.69;2393082;28;45270;-84
2022/10/08 10:52:16;;;;;;;;;3.75;1.50;;;;;17.76;49.44;102308.53;2385533;28;45464;-84
2022/10/08 10:53:35;;;;;;;;;2.00;1.00;;;;;17.74;49.05;102301.56;2382491;28;47752;-83
2022/10/08 10:55:08;;;;;;;;;1.00;1.00;;;;;17.77;51.74;102297.00;2387692;28;44542;-83
2022/10/08 10:56:20;;;;;;;;;2.25;2.00;;;;;17.77;50.86;102304.97;2393127;28;47472;-84
2022/10/08 10:57:49;;;;;;;;;3.00;1.00;;;;;17.81;52.10;102302.16;2393657;28;45175;-83
2022/10/08 10:59:20;;;;;;;;;2.25;1.75;;;;;17.82;50.88;102303.91;2383320;28;47392;-84
2022/10/08 11:00:49;;;;;;;;;1.00;1.00;;;;;17.83;50.89;102303.84;2389433;28;45256;-84
2022/10/08 11:02:13;;;;;;;;;1.00;1.00;;;;;17.85;50.40;102309.13;2392732;28;46269;-83
2022/10/08 11:03:29;;;;;;;;;2.00;2.00;;;;;17.91;50.58;102308.88;2392548;28;44817;-83
2022/10/08 11:04:57;;;;;;;;;6.50;2.50;;;;;17.92;50.52;102304.44;2392365;28;45482;-84
2022/10/08 11:06:17;;;;;;;;;3.75;1.50;;;;;17.94;49.55;102302.56;2393010;28;44834;-84
2022/10/08 11:08:01;;;;;;;;;1.25;1.00;;;;;17.96;49.46;102309.56;2393044;28;45598;-84
2022/10/08 11:09:17;;;;;;;;;2.00;1.00;;;;;17.97;48.33;102308.66;2393525;28;45348;-83
2022/10/08 11:10:34;;;;;;;;;1.00;1.00;;;;;17.98;50.39;102302.38;2393162;28;45360;-83
2022/10/08 11:11:51;;;;;;;;;2.50;0.75;;;;;17.97;49.11;102300.66;2393409;28;45315;-84
2022/10/08 11:13:04;;;;;;;;;5.50;2.00;;;;;17.98;48.96;102313.03;2393464;28;45318;-83
2022/10/08 11:14:53;;;;;;;;;2.00;1.00;;;;;17.94;48.71;102305.22;2392960;28;45437;-84
2022/10/08 11:16:14;;;;;;;;;1.00;1.00;;;;;17.90;48.97;102309.81;2346409;29;46493;-83
2022/10/08 11:17:30;;;;;;;;;4.00;1.00;;;;;17.87;48.17;102315.25;2345955;29;45362;-83
2022/10/08 11:18:50;;;;;;;;;1.50;1.50;;;;;17.84;49.22;102310.91;2346382;29;46276;-83
2022/10/08 11:20:09;;;;;;;;;2.00;1.00;;;;;17.81;49.94;102311.03;2346647;29;44698;-83
2022/10/08 11:21:45;;;;;;;;;1.00;1.00;;;;;17.76;47.89;102313.00;2357126;28;46611;-84
2022/10/08 11:23:09;;;;;;;;;1.25;1.25;;;;;17.71;48.10;102307.84;2393460;28;45200;-83
2022/10/08 11:24:34;;;;;;;;;4.00;2.25;;;;;17.68;49.07;102310.63;2382194;28;48051;-83
2022/10/08 11:25:59;;;;;;;;;3.00;2.25;;;;;17.65;50.00;102310.75;2387087;28;45307;-84
2022/10/08 11:27:28;;;;;;;;;1.00;1.00;;;;;17.64;49.11;102309.00;2393394;28;46542;-83
2022/10/08 11:28:53;;;;;;;;;2.00;2.00;;;;;17.67;49.72;102308.91;2393483;28;45246;-84
2022/10/08 11:30:13;;;;;;;;;0.75;0.75;;;;;17.70;49.37;102311.47;2393465;28;45460;-84
2022/10/08 11:31:29;;;;;;;;;2.00;1.00;;;;;17.76;49.83;102305.00;2389604;28;45160;-84
2022/10/08 11:32:43;;;;;;;;;1.00;0.00;;;;;17.81;49.49;102300.38;2383064;28;47073;-82
2022/10/08 11:33:55;;;;;;;;;0.00;0.00;;;;;17.86;49.79;102303.75;2383194;28;45333;-82
2022/10/08 11:35:11;;;;;;;;;4.00;1.00;;;;;17.95;50.13;102302.50;2392849;28;46486;-81
2022/10/08 11:37:04;;;;;;;;;2.25;2.00;;;;;18.05;50.02;102307.47;2392961;28;45456;-82
2022/10/08 11:38:47;;;;;;;;;2.00;1.00;;;;;18.14;49.31;102298.25;2393731;28;45445;-82
2022/10/08 11:40:13;;;;;;;;;3.25;1.00;;;;;18.21;47.87;102297.09;2360937;28;44819;-84
2022/10/08 11:41:37;;;;;;;;;4.25;2.00;;;;;18.26;48.14;102294.25;2378673;28;45531;-84
2022/10/08 11:43:09;;;;;;;;;0.75;0.75;;;;;18.31;48.61;102298.47;2392225;28;45393;-83
2022/10/08 11:44:20;;;;;;;;;3.00;0.75;;;;;18.33;47.97;102279.75;2382507;28;48616;-82
2022/10/08 11:45:39;;;;;;;;;3.00;1.75;;;;;18.36;47.48;102292.06;2386773;28;45211;-82
2022/10/08 11:46:49;;;;;;;;;3.75;2.00;;;;;18.36;47.30;102292.06;2390636;28;47480;-81
2022/10/08 11:48:20;;;;;;;;;5.50;1.00;;;;;18.36;48.04;102297.41;2384688;28;45428;-82
2022/10/08 11:49:31;;;;;;;;;2.00;1.00;;;;;18.35;48.04;102293.88;2375759;28;45693;-82
2022/10/08 11:50:41;;;;;;;;;0.25;0.25;;;;;18.35;48.88;102293.03;2385811;28;44675;-82
2022/10/08 11:51:52;;;;;;;;;1.00;0.00;;;;;18.36;49.29;102286.75;2393140;28;45347;-82
2022/10/08 11:53:14;;;;;;;;;1.25;0.50;;;;;18.34;46.54;102284.16;2394950;28;45242;-82
2022/10/08 11:54:47;;;;;;;;;1.00;1.00;;;;;18.28;45.15;102287.06;2380111;28;45283;-82
2022/10/08 11:55:58;;;;;;;;;2.00;1.50;;;;;18.23;45.56;102281.94;2393688;28;45350;-82
2022/10/08 11:57:35;;;;;;;;;6.00;5.50;;;;;18.22;46.78;102289.03;2396666;28;46156;-82
2022/10/08 11:58:52;;;;;;;;;2.00;1.00;;;;;18.19;44.39;102293.59;2401619;28;44635;-82
2022/10/08 12:00:06;;;;;;;;;5.25;4.00;;;;;18.17;45.10;102291.03;2399189;28;45693;-82
2022/10/08 12:01:17;;;;;;;;;1.00;1.00;;;;;18.14;45.32;102287.59;2401724;28;44584;-82
2022/10/08 12:02:34;;;;;;;;;1.75;0.50;;;;;18.12;45.25;102293.00;2396413;28;45501;-82
2022/10/08 12:04:06;;;;;;;;;1.00;1.00;;;;;18.13;47.14;102289.38;2390882;28;44768;-81